sensor_id;sensor_type;location;lat;lon;timestamp;P1;P2;P0
20157;PMS5003;10239;56.820;24.416;2024-03-02T00:01:38;3.00;3.00;1.00
20157;PMS5003;10239;56.820;24.416;2024-03-02T00:04:06;3.00;3.00;1.00
20157;PMS5003;10239;56.820;24.416;2024-03-02T00:06:35;3.00;3.00;1.00
20157;PMS5003;10239;56.820;24.416;2024-03-02T00:09:02;1.80;1.80;0.00
20157;PMS5003;10239;56.820;24.416;2024-03-02T00:11:30;1.40;1.40;0.00
20157;PMS5003;10239;56.820;24.416;2024-03-02T00:14:01;6.80;3.60;0.00
20157;PMS5003;10239;56.820;24.416;2024-03-02T00:16:32;4.60;1.80;0.80
20157;PMS5003;10239;56.820;24.416;2024-03-02T00:19:01;3.00;3.00;0.60
20157;PMS5003;10239;56.820;24.416;2024-03-02T00:21:32;5.40;3.00;1.00
20157;PMS5003;10239;56.820;24.416;2024-03-02T00:24:00;5.20;3.40;1.00
20157;PMS5003;10239;56.820;24.416;2024-03-02T00:26:34;1.00;1.00;0.20
20157;PMS5003;10239;56.820;24.416;2024-03-02T00:29:01;6.20;3.00;1.00
20157;PMS5003;10239;56.820;24.416;2024-03-02T00:31:29;3.00;3.00;1.00
20157;PMS5003;10239;56.820;24.416;2024-03-02T00:33:57;6.00;3.20;1.00
20157;PMS5003;10239;56.820;24.416;2024-03-02T00:36:30;6.00;4.80;1.00
20157;PMS5003;10239;56.820;24.416;2024-03-02T00:38:58;3.00;3.00;1.00
20157;PMS5003;10239;56.820;24.416;2024-03-02T00:41:32;3.40;2.80;1.00
20157;PMS5003;10239;56.820;24.416;2024-03-02T00:46:35;3.80;2.20;1.00
20157;PMS5003;10239;56.820;24.416;2024-03-02T00:49:04;2.20;2.20;0.00
20157;PMS5003;10239;56.820;24.416;2024-03-02T00:51:38;3.00;3.00;1.00
20157;PMS5003;10239;56.820;24.416;2024-03-02T00:54:07;3.00;3.00;1.00
20157;PMS5003;10239;56.820;24.416;2024-03-02T00:56:36;0.40;0.40;0.40
20157;PMS5003;10239;56.820;24.416;2024-03-02T00:59:03;4.00;1.00;0.60
20157;PMS5003;10239;56.820;24.416;2024-03-02T01:01:31;4.00;4.00;1.00
20157;PMS5003;10239;56.820;24.416;2024-03-02T01:03:58;5.40;2.60;1.00
20157;PMS5003;10239;56.820;24.416;2024-03-02T01:06:26;4.00;4.00;1.00
20157;PMS5003;10239;56.820;24.416;2024-03-02T01:08:54;3.00;3.00;1.00
20157;PMS5003;10239;56.820;24.416;2024-03-02T01:11:22;1.60;1.00;0.20
20157;PMS5003;10239;56.820;24.416;2024-03-02T01:13:50;5.40;3.00;1.00
20157;PMS5003;10239;56.820;24.416;2024-03-02T01:16:19;7.00;3.00;0.60
20157;PMS5003;10239;56.820;24.416;2024-03-02T01:18:47;6.20;4.00;0.40
20157;PMS5003;10239;56.820;24.416;2024-03-02T01:21:15;3.20;3.00;1.00
20157;PMS5003;10239;56.820;24.416;2024-03-02T01:23:43;4.00;2.20;0.80
20157;PMS5003;10239;56.820;24.416;2024-03-02T01:26:10;4.40;3.80;1.00
20157;PMS5003;10239;56.820;24.416;2024-03-02T01:28:38;3.60;3.00;1.00
20157;PMS5003;10239;56.820;24.416;2024-03-02T01:31:06;4.00;3.20;1.00
20157;PMS5003;10239;56.820;24.416;2024-03-02T01:33:33;5.60;5.60;2.60
20157;PMS5003;10239;56.820;24.416;2024-03-02T01:36:01;4.00;1.00;0.00
20157;PMS5003;10239;56.820;24.416;2024-03-02T01:38:29;3.00;3.00;2.60
20157;PMS5003;10239;56.820;24.416;2024-03-02T01:40:56;3.00;3.00;0.00
20157;PMS5003;10239;56.820;24.416;2024-03-02T01:43:25;2.60;2.60;0.00
20157;PMS5003;10239;56.820;24.416;2024-03-02T01:45:52;4.20;3.80;1.40
20157;PMS5003;10239;56.820;24.416;2024-03-02T01:48:20;3.00;3.00;0.00
20157;PMS5003;10239;56.820;24.416;2024-03-02T01:50:48;4.00;4.00;3.00
20157;PMS5003;10239;56.820;24.416;2024-03-02T01:53:15;3.40;3.40;1.00
20157;PMS5003;10239;56.820;24.416;2024-03-02T01:55:43;2.00;0.60;0.60
20157;PMS5003;10239;56.820;24.416;2024-03-02T01:58:11;3.40;3.40;1.00
20157;PMS5003;10239;56.820;24.416;2024-03-02T02:00:39;3.60;3.00;0.00
20157;PMS5003;10239;56.820;24.416;2024-03-02T02:03:07;10.60;6.80;1.00
20157;PMS5003;10239;56.820;24.416;2024-03-02T02:05:34;3.60;3.60;1.40
20157;PMS5003;10239;56.820;24.416;2024-03-02T02:08:02;7.00;6.00;1.00
20157;PMS5003;10239;56.820;24.416;2024-03-02T02:10:30;9.80;6.40;3.80
20157;PMS5003;10239;56.820;24.416;2024-03-02T02:12:58;1.80;1.80;1.00
20157;PMS5003;10239;56.820;24.416;2024-03-02T02:15:27;3.00;3.00;0.00
20157;PMS5003;10239;56.820;24.416;2024-03-02T02:17:56;4.40;4.40;1.00
20157;PMS5003;10239;56.820;24.416;2024-03-02T02:20:25;5.40;4.00;1.00
20157;PMS5003;10239;56.820;24.416;2024-03-02T02:22:58;4.60;3.00;1.00
20157;PMS5003;10239;56.820;24.416;2024-03-02T02:25:28;5.80;5.80;1.80
20157;PMS5003;10239;56.820;24.416;2024-03-02T02:27:56;1.40;1.40;0.60
20157;PMS5003;10239;56.820;24.416;2024-03-02T02:30:26;4.00;4.00;1.00
20157;PMS5003;10239;56.820;24.416;2024-03-02T02:32:56;11.20;6.20;2.20
20157;PMS5003;10239;56.820;24.416;2024-03-02T02:35:24;2.60;2.60;0.00
20157;PMS5003;10239;56.820;24.416;2024-03-02T02:37:52;6.80;6.80;3.00
20157;PMS5003;10239;56.820;24.416;2024-03-02T02:40:21;1.00;1.00;0.00
20157;PMS5003;10239;56.820;24.416;2024-03-02T02:42:49;6.80;6.80;3.00
20157;PMS5003;10239;56.820;24.416;2024-03-02T02:45:21;6.00;6.00;3.00
20157;PMS5003;10239;56.820;24.416;2024-03-02T02:47:48;6.60;5.80;3.00
20157;PMS5003;10239;56.820;24.416;2024-03-02T02:50:16;9.20;6.80;3.00
20157;PMS5003;10239;56.820;24.416;2024-03-02T02:52:44;9.00;6.60;1.80
20157;PMS5003;10239;56.820;24.416;2024-03-02T02:55:12;10.00;7.40;3.00
20157;PMS5003;10239;56.820;24.416;2024-03-02T02:57:41;8.40;5.80;3.20
20157;PMS5003;10239;56.820;24.416;2024-03-02T03:00:11;10.40;6.60;3.00
20157;PMS5003;10239;56.820;24.416;2024-03-02T03:02:46;12.00;5.60;3.00
20157;PMS5003;10239;56.820;24.416;2024-03-02T03:05:16;10.20;3.40;0.80
20157;PMS5003;10239;56.820;24.416;2024-03-02T03:07:44;6.20;6.20;2.20
20157;PMS5003;10239;56.820;24.416;2024-03-02T03:10:12;14.00;7.80;3.60
20157;PMS5003;10239;56.820;24.416;2024-03-02T03:12:41;9.80;6.00;3.60
20157;PMS5003;10239;56.820;24.416;2024-03-02T03:15:12;7.40;6.40;3.00
20157;PMS5003;10239;56.820;24.416;2024-03-02T03:17:40;6.00;5.20;3.00
20157;PMS5003;10239;56.820;24.416;2024-03-02T03:20:08;7.80;6.00;3.00
20157;PMS5003;10239;56.820;24.416;2024-03-02T03:22:39;8.60;6.60;3.00
20157;PMS5003;10239;56.820;24.416;2024-03-02T03:25:07;9.60;4.00;3.00
20157;PMS5003;10239;56.820;24.416;2024-03-02T03:27:37;12.40;9.20;4.00
20157;PMS5003;10239;56.820;24.416;2024-03-02T03:30:05;9.00;9.00;3.00
20157;PMS5003;10239;56.820;24.416;2024-03-02T03:32:33;3.20;3.20;1.00
20157;PMS5003;10239;56.820;24.416;2024-03-02T03:35:01;8.60;6.40;3.80
20157;PMS5003;10239;56.820;24.416;2024-03-02T03:37:29;10.80;9.20;3.60
20157;PMS5003;10239;56.820;24.416;2024-03-02T03:40:01;8.20;8.00;3.00
20157;PMS5003;10239;56.820;24.416;2024-03-02T03:42:29;11.20;9.20;4.00
20157;PMS5003;10239;56.820;24.416;2024-03-02T03:44:57;5.20;3.00;1.00
20157;PMS5003;10239;56.820;24.416;2024-03-02T03:47:25;16.80;14.60;6.00
20157;PMS5003;10239;56.820;24.416;2024-03-02T03:49:53;7.00;7.00;3.60
20157;PMS5003;10239;56.820;24.416;2024-03-02T03:52:20;8.40;6.80;3.60
20157;PMS5003;10239;56.820;24.416;2024-03-02T03:54:48;7.00;7.00;3.80
20157;PMS5003;10239;56.820;24.416;2024-03-02T03:57:16;11.00;9.40;3.20
20157;PMS5003;10239;56.820;24.416;2024-03-02T03:59:44;15.00;10.00;4.00
20157;PMS5003;10239;56.820;24.416;2024-03-02T04:02:13;7.40;7.40;4.00
20157;PMS5003;10239;56.820;24.416;2024-03-02T04:04:40;11.60;11.60;4.80
20157;PMS5003;10239;56.820;24.416;2024-03-02T04:07:08;9.20;9.20;3.00
20157;PMS5003;10239;56.820;24.416;2024-03-02T04:09:35;12.00;10.00;6.00
20157;PMS5003;10239;56.820;24.416;2024-03-02T04:12:03;13.20;11.20;4.80
20157;PMS5003;10239;56.820;24.416;2024-03-02T04:14:31;6.80;6.20;1.40
20157;PMS5003;10239;56.820;24.416;2024-03-02T04:16:58;9.00;8.20;5.20
20157;PMS5003;10239;56.820;24.416;2024-03-02T04:19:26;11.40;8.80;4.80
20157;PMS5003;10239;56.820;24.416;2024-03-02T04:21:53;9.80;9.80;4.00
20157;PMS5003;10239;56.820;24.416;2024-03-02T04:24:21;12.20;10.00;4.00
20157;PMS5003;10239;56.820;24.416;2024-03-02T04:26:49;7.80;6.20;2.60
20157;PMS5003;10239;56.820;24.416;2024-03-02T04:29:16;9.00;8.60;4.00
20157;PMS5003;10239;56.820;24.416;2024-03-02T04:31:44;14.20;9.60;4.80
20157;PMS5003;10239;56.820;24.416;2024-03-02T04:34:11;14.00;9.80;4.00
20157;PMS5003;10239;56.820;24.416;2024-03-02T04:36:38;8.80;7.40;4.00
20157;PMS5003;10239;56.820;24.416;2024-03-02T04:39:06;12.00;10.20;4.80
20157;PMS5003;10239;56.820;24.416;2024-03-02T04:41:36;10.60;8.20;3.80
20157;PMS5003;10239;56.820;24.416;2024-03-02T04:44:03;12.00;6.00;4.00
20157;PMS5003;10239;56.820;24.416;2024-03-02T04:46:31;16.80;13.40;6.00
20157;PMS5003;10239;56.820;24.416;2024-03-02T04:48:58;13.40;12.40;4.00
20157;PMS5003;10239;56.820;24.416;2024-03-02T04:51:26;17.60;11.60;6.00
20157;PMS5003;10239;56.820;24.416;2024-03-02T04:53:53;12.00;10.00;4.00
20157;PMS5003;10239;56.820;24.416;2024-03-02T04:56:21;15.00;10.20;4.00
20157;PMS5003;10239;56.820;24.416;2024-03-02T04:59:06;14.60;12.40;6.00
20157;PMS5003;10239;56.820;24.416;2024-03-02T05:01:34;9.40;9.00;6.20
20157;PMS5003;10239;56.820;24.416;2024-03-02T05:04:02;10.60;7.40;3.20
20157;PMS5003;10239;56.820;24.416;2024-03-02T05:06:29;15.00;10.80;4.80
20157;PMS5003;10239;56.820;24.416;2024-03-02T05:08:57;11.20;10.20;4.80
20157;PMS5003;10239;56.820;24.416;2024-03-02T05:11:24;11.60;6.80;3.80
20157;PMS5003;10239;56.820;24.416;2024-03-02T05:14:04;12.80;11.60;4.80
20157;PMS5003;10239;56.820;24.416;2024-03-02T05:16:34;12.00;10.40;4.00
20157;PMS5003;10239;56.820;24.416;2024-03-02T05:19:03;15.40;11.20;4.40
20157;PMS5003;10239;56.820;24.416;2024-03-02T05:21:33;7.20;6.00;1.00
20157;PMS5003;10239;56.820;24.416;2024-03-02T05:24:02;13.20;10.00;4.40
20157;PMS5003;10239;56.820;24.416;2024-03-02T05:26:29;14.60;9.80;4.00
20157;PMS5003;10239;56.820;24.416;2024-03-02T05:28:57;14.80;11.20;6.20
20157;PMS5003;10239;56.820;24.416;2024-03-02T05:31:24;7.80;7.40;3.00
20157;PMS5003;10239;56.820;24.416;2024-03-02T05:33:52;13.00;9.40;4.00
20157;PMS5003;10239;56.820;24.416;2024-03-02T05:36:23;16.40;10.40;6.00
20157;PMS5003;10239;56.820;24.416;2024-03-02T05:38:51;15.40;11.60;6.00
20157;PMS5003;10239;56.820;24.416;2024-03-02T05:41:19;15.40;10.40;5.60
20157;PMS5003;10239;56.820;24.416;2024-03-02T05:43:47;13.60;13.60;6.60
20157;PMS5003;10239;56.820;24.416;2024-03-02T05:46:16;14.40;14.00;6.00
20157;PMS5003;10239;56.820;24.416;2024-03-02T05:48:45;11.80;11.80;4.00
20157;PMS5003;10239;56.820;24.416;2024-03-02T05:51:13;18.80;16.20;7.20
20157;PMS5003;10239;56.820;24.416;2024-03-02T05:53:41;20.60;12.00;6.80
20157;PMS5003;10239;56.820;24.416;2024-03-02T05:56:08;21.80;14.20;6.80
20157;PMS5003;10239;56.820;24.416;2024-03-02T05:58:36;12.00;8.80;3.60
20157;PMS5003;10239;56.820;24.416;2024-03-02T06:01:20;11.80;6.80;3.00
20157;PMS5003;10239;56.820;24.416;2024-03-02T06:03:55;10.80;7.40;3.80
20157;PMS5003;10239;56.820;24.416;2024-03-02T06:06:24;10.40;8.20;5.60
20157;PMS5003;10239;56.820;24.416;2024-03-02T06:08:51;11.00;9.00;4.00
20157;PMS5003;10239;56.820;24.416;2024-03-02T06:11:19;9.40;9.40;6.20
20157;PMS5003;10239;56.820;24.416;2024-03-02T06:13:47;13.40;12.00;6.60
20157;PMS5003;10239;56.820;24.416;2024-03-02T06:16:14;18.00;11.80;6.40
20157;PMS5003;10239;56.820;24.416;2024-03-02T06:18:41;8.80;8.20;3.40
20157;PMS5003;10239;56.820;24.416;2024-03-02T06:21:09;24.00;16.40;6.60
20157;PMS5003;10239;56.820;24.416;2024-03-02T06:23:37;13.80;12.40;7.00
20157;PMS5003;10239;56.820;24.416;2024-03-02T06:26:04;13.80;12.40;5.20
20157;PMS5003;10239;56.820;24.416;2024-03-02T06:28:31;10.40;7.00;4.00
20157;PMS5003;10239;56.820;24.416;2024-03-02T06:30:59;17.80;10.40;1.60
20157;PMS5003;10239;56.820;24.416;2024-03-02T06:33:29;12.40;10.80;5.80
20157;PMS5003;10239;56.820;24.416;2024-03-02T06:35:56;13.60;11.00;5.00
20157;PMS5003;10239;56.820;24.416;2024-03-02T06:38:24;11.00;10.60;5.00
20157;PMS5003;10239;56.820;24.416;2024-03-02T06:40:51;17.80;13.40;8.00
20157;PMS5003;10239;56.820;24.416;2024-03-02T06:43:19;26.80;16.80;7.60
20157;PMS5003;10239;56.820;24.416;2024-03-02T06:45:50;13.20;13.20;9.00
20157;PMS5003;10239;56.820;24.416;2024-03-02T06:48:18;14.00;13.60;7.20
20157;PMS5003;10239;56.820;24.416;2024-03-02T06:50:50;12.60;9.00;5.00
20157;PMS5003;10239;56.820;24.416;2024-03-02T06:53:18;9.00;9.00;3.40
20157;PMS5003;10239;56.820;24.416;2024-03-02T06:55:46;9.80;8.00;4.20
20157;PMS5003;10239;56.820;24.416;2024-03-02T06:58:13;10.00;6.00;2.00
20157;PMS5003;10239;56.820;24.416;2024-03-02T07:00:44;11.40;9.00;5.00
20157;PMS5003;10239;56.820;24.416;2024-03-02T07:03:11;20.20;16.80;10.60
20157;PMS5003;10239;56.820;24.416;2024-03-02T07:05:39;20.60;15.20;7.80
20157;PMS5003;10239;56.820;24.416;2024-03-02T07:08:06;13.80;10.40;5.20
20157;PMS5003;10239;56.820;24.416;2024-03-02T07:10:34;10.00;10.00;4.00
20157;PMS5003;10239;56.820;24.416;2024-03-02T07:13:01;14.80;13.60;6.20
20157;PMS5003;10239;56.820;24.416;2024-03-02T07:15:29;17.80;11.80;5.00
20157;PMS5003;10239;56.820;24.416;2024-03-02T07:18:11;11.40;9.20;2.00
20157;PMS5003;10239;56.820;24.416;2024-03-02T07:20:39;7.40;6.60;3.00
20157;PMS5003;10239;56.820;24.416;2024-03-02T07:23:06;13.40;9.20;3.80
20157;PMS5003;10239;56.820;24.416;2024-03-02T07:25:33;10.20;7.60;4.00
20157;PMS5003;10239;56.820;24.416;2024-03-02T07:28:04;7.00;7.00;3.00
20157;PMS5003;10239;56.820;24.416;2024-03-02T07:30:31;10.60;10.60;5.20
20157;PMS5003;10239;56.820;24.416;2024-03-02T07:32:59;11.80;9.20;4.00
20157;PMS5003;10239;56.820;24.416;2024-03-02T07:35:27;12.40;11.00;6.20
20157;PMS5003;10239;56.820;24.416;2024-03-02T07:37:54;12.00;9.60;6.20
20157;PMS5003;10239;56.820;24.416;2024-03-02T07:40:22;8.60;8.40;3.40
20157;PMS5003;10239;56.820;24.416;2024-03-02T07:42:49;7.20;6.20;2.00
20157;PMS5003;10239;56.820;24.416;2024-03-02T07:45:17;10.20;9.80;5.20
20157;PMS5003;10239;56.820;24.416;2024-03-02T07:47:45;14.40;11.80;6.60
20157;PMS5003;10239;56.820;24.416;2024-03-02T07:50:13;12.60;11.00;4.80
20157;PMS5003;10239;56.820;24.416;2024-03-02T07:52:41;15.80;11.00;5.00
20157;PMS5003;10239;56.820;24.416;2024-03-02T07:55:09;16.40;9.40;5.60
20157;PMS5003;10239;56.820;24.416;2024-03-02T07:57:36;18.40;13.80;6.00
20157;PMS5003;10239;56.820;24.416;2024-03-02T08:00:03;14.00;10.00;6.00
20157;PMS5003;10239;56.820;24.416;2024-03-02T08:02:37;13.20;10.00;5.60
20157;PMS5003;10239;56.820;24.416;2024-03-02T08:05:04;8.40;7.40;3.00
20157;PMS5003;10239;56.820;24.416;2024-03-02T08:07:32;14.20;8.80;5.00
20157;PMS5003;10239;56.820;24.416;2024-03-02T08:09:59;10.60;7.80;3.00
20157;PMS5003;10239;56.820;24.416;2024-03-02T08:12:27;10.20;7.80;3.20
20157;PMS5003;10239;56.820;24.416;2024-03-02T08:14:54;13.00;9.20;5.60
20157;PMS5003;10239;56.820;24.416;2024-03-02T08:17:22;13.80;9.80;5.20
20157;PMS5003;10239;56.820;24.416;2024-03-02T08:19:49;8.40;7.00;3.00
20157;PMS5003;10239;56.820;24.416;2024-03-02T08:22:17;12.60;9.80;4.00
20157;PMS5003;10239;56.820;24.416;2024-03-02T08:24:44;9.60;8.60;3.40
20157;PMS5003;10239;56.820;24.416;2024-03-02T08:27:12;15.80;13.00;6.20
20157;PMS5003;10239;56.820;24.416;2024-03-02T08:29:40;16.60;12.40;7.20
20157;PMS5003;10239;56.820;24.416;2024-03-02T08:32:08;9.80;8.20;5.20
20157;PMS5003;10239;56.820;24.416;2024-03-02T08:34:35;9.80;9.00;4.60
20157;PMS5003;10239;56.820;24.416;2024-03-02T08:37:02;11.80;10.00;4.40
20157;PMS5003;10239;56.820;24.416;2024-03-02T08:39:30;18.00;14.20;7.00
20157;PMS5003;10239;56.820;24.416;2024-03-02T08:41:57;18.40;10.60;5.80
20157;PMS5003;10239;56.820;24.416;2024-03-02T08:44:25;16.80;9.60;5.00
20157;PMS5003;10239;56.820;24.416;2024-03-02T08:46:54;12.60;8.80;5.80
20157;PMS5003;10239;56.820;24.416;2024-03-02T08:49:22;9.80;8.20;3.60
20157;PMS5003;10239;56.820;24.416;2024-03-02T08:51:50;12.80;12.00;6.80
20157;PMS5003;10239;56.820;24.416;2024-03-02T08:54:23;11.60;8.80;6.00
20157;PMS5003;10239;56.820;24.416;2024-03-02T08:56:51;10.40;8.80;3.00
20157;PMS5003;10239;56.820;24.416;2024-03-02T08:59:18;16.00;8.40;3.40
20157;PMS5003;10239;56.820;24.416;2024-03-02T09:01:46;14.00;10.00;6.00
20157;PMS5003;10239;56.820;24.416;2024-03-02T09:04:14;12.60;9.40;4.00
20157;PMS5003;10239;56.820;24.416;2024-03-02T09:06:41;9.80;9.20;5.80
20157;PMS5003;10239;56.820;24.416;2024-03-02T09:09:09;11.60;11.60;6.00
20157;PMS5003;10239;56.820;24.416;2024-03-02T09:11:36;15.80;12.20;5.00
20157;PMS5003;10239;56.820;24.416;2024-03-02T09:14:04;13.00;9.40;6.60
20157;PMS5003;10239;56.820;24.416;2024-03-02T09:16:31;11.00;10.20;3.60
20157;PMS5003;10239;56.820;24.416;2024-03-02T09:18:59;17.20;11.80;7.00
20157;PMS5003;10239;56.820;24.416;2024-03-02T09:21:27;13.40;12.20;6.00
20157;PMS5003;10239;56.820;24.416;2024-03-02T09:23:57;14.20;8.80;5.80
20157;PMS5003;10239;56.820;24.416;2024-03-02T09:26:24;14.00;11.00;6.20
20157;PMS5003;10239;56.820;24.416;2024-03-02T09:28:51;12.80;8.80;4.00
20157;PMS5003;10239;56.820;24.416;2024-03-02T09:31:19;10.00;9.80;6.00
20157;PMS5003;10239;56.820;24.416;2024-03-02T09:33:47;13.60;8.80;4.00
20157;PMS5003;10239;56.820;24.416;2024-03-02T09:36:18;16.20;11.20;7.20
20157;PMS5003;10239;56.820;24.416;2024-03-02T09:38:46;11.40;9.20;4.60
20157;PMS5003;10239;56.820;24.416;2024-03-02T09:41:14;12.40;10.60;5.20
20157;PMS5003;10239;56.820;24.416;2024-03-02T09:43:42;11.40;11.20;4.80
20157;PMS5003;10239;56.820;24.416;2024-03-02T09:46:09;14.00;12.80;6.00
20157;PMS5003;10239;56.820;24.416;2024-03-02T09:48:37;12.00;12.00;5.20
20157;PMS5003;10239;56.820;24.416;2024-03-02T09:51:06;11.40;8.00;4.60
20157;PMS5003;10239;56.820;24.416;2024-03-02T09:53:34;13.60;10.00;6.00
20157;PMS5003;10239;56.820;24.416;2024-03-02T09:56:01;10.00;9.60;5.00
20157;PMS5003;10239;56.820;24.416;2024-03-02T09:58:29;13.40;9.00;4.40
20157;PMS5003;10239;56.820;24.416;2024-03-02T10:00:57;11.60;9.20;4.00
20157;PMS5003;10239;56.820;24.416;2024-03-02T10:03:25;14.80;9.60;4.00
20157;PMS5003;10239;56.820;24.416;2024-03-02T10:05:55;11.60;11.60;5.20
20157;PMS5003;10239;56.820;24.416;2024-03-02T10:08:23;15.80;10.80;5.40
20157;PMS5003;10239;56.820;24.416;2024-03-02T10:10:51;8.80;7.20;3.00
20157;PMS5003;10239;56.820;24.416;2024-03-02T10:13:19;10.20;9.00;5.80
20157;PMS5003;10239;56.820;24.416;2024-03-02T10:15:51;13.20;10.00;5.40
20157;PMS5003;10239;56.820;24.416;2024-03-02T10:18:26;6.80;6.80;4.00
20157;PMS5003;10239;56.820;24.416;2024-03-02T10:21:08;13.20;12.20;6.80
20157;PMS5003;10239;56.820;24.416;2024-03-02T10:23:41;13.20;10.20;4.40
20157;PMS5003;10239;56.820;24.416;2024-03-02T10:26:21;13.40;12.00;6.00
20157;PMS5003;10239;56.820;24.416;2024-03-02T10:28:48;9.00;6.00;4.40
20157;PMS5003;10239;56.820;24.416;2024-03-02T10:31:17;14.20;9.00;4.00
20157;PMS5003;10239;56.820;24.416;2024-03-02T10:33:45;9.40;9.40;4.20
20157;PMS5003;10239;56.820;24.416;2024-03-02T10:36:12;8.20;8.20;6.40
20157;PMS5003;10239;56.820;24.416;2024-03-02T10:38:40;15.20;10.40;5.00
20157;PMS5003;10239;56.820;24.416;2024-03-02T10:41:08;8.40;6.20;4.00
20157;PMS5003;10239;56.820;24.416;2024-03-02T10:43:35;5.00;5.00;3.00
20157;PMS5003;10239;56.820;24.416;2024-03-02T10:46:03;15.40;10.40;4.00
20157;PMS5003;10239;56.820;24.416;2024-03-02T10:48:31;18.20;12.40;7.20
20157;PMS5003;10239;56.820;24.416;2024-03-02T10:51:02;16.40;12.60;5.20
20157;PMS5003;10239;56.820;24.416;2024-03-02T10:53:30;9.20;7.80;4.00
20157;PMS5003;10239;56.820;24.416;2024-03-02T10:55:58;9.60;8.80;6.60
20157;PMS5003;10239;56.820;24.416;2024-03-02T10:58:31;5.60;3.00;0.60
20157;PMS5003;10239;56.820;24.416;2024-03-02T11:01:03;14.20;11.80;6.20
20157;PMS5003;10239;56.820;24.416;2024-03-02T11:03:33;9.00;7.00;3.00
20157;PMS5003;10239;56.820;24.416;2024-03-02T11:06:06;16.60;12.00;6.00
20157;PMS5003;10239;56.820;24.416;2024-03-02T11:08:35;12.80;8.60;3.00
20157;PMS5003;10239;56.820;24.416;2024-03-02T11:11:07;10.60;10.20;5.00
20157;PMS5003;10239;56.820;24.416;2024-03-02T11:13:49;13.60;11.80;5.20
20157;PMS5003;10239;56.820;24.416;2024-03-02T11:16:24;9.40;7.40;4.00
20157;PMS5003;10239;56.820;24.416;2024-03-02T11:19:03;13.20;11.20;6.80
20157;PMS5003;10239;56.820;24.416;2024-03-02T11:21:36;16.00;13.80;5.60
20157;PMS5003;10239;56.820;24.416;2024-03-02T11:26:51;8.60;6.60;2.80
20157;PMS5003;10239;56.820;24.416;2024-03-02T11:32:22;15.20;11.00;6.00
20157;PMS5003;10239;56.820;24.416;2024-03-02T11:34:51;12.80;11.40;6.00
20157;PMS5003;10239;56.820;24.416;2024-03-02T11:37:19;12.80;10.40;5.60
20157;PMS5003;10239;56.820;24.416;2024-03-02T11:39:49;15.80;9.80;6.00
20157;PMS5003;10239;56.820;24.416;2024-03-02T11:42:18;15.00;8.80;5.00
20157;PMS5003;10239;56.820;24.416;2024-03-02T11:44:46;11.20;7.80;5.20
20157;PMS5003;10239;56.820;24.416;2024-03-02T11:47:15;11.40;9.20;6.00
20157;PMS5003;10239;56.820;24.416;2024-03-02T11:49:45;8.60;6.60;3.00
20157;PMS5003;10239;56.820;24.416;2024-03-02T11:52:16;9.80;8.60;4.60
20157;PMS5003;10239;56.820;24.416;2024-03-02T11:54:45;10.40;7.80;3.20
20157;PMS5003;10239;56.820;24.416;2024-03-02T11:57:14;11.20;10.00;4.80
20157;PMS5003;10239;56.820;24.416;2024-03-02T11:59:44;46.40;38.00;23.20
20157;PMS5003;10239;56.820;24.416;2024-03-02T12:02:18;72.40;53.00;30.80
20157;PMS5003;10239;56.820;24.416;2024-03-02T12:04:47;157.00;119.50;50.50
20157;PMS5003;10239;56.820;24.416;2024-03-02T12:07:19;27.00;17.80;10.60
20157;PMS5003;10239;56.820;24.416;2024-03-02T12:09:49;16.40;11.20;6.00
20157;PMS5003;10239;56.820;24.416;2024-03-02T12:12:27;13.60;7.80;3.00
20157;PMS5003;10239;56.820;24.416;2024-03-02T12:14:55;11.20;9.60;3.40
20157;PMS5003;10239;56.820;24.416;2024-03-02T12:17:22;34.40;25.00;13.20
20157;PMS5003;10239;56.820;24.416;2024-03-02T12:19:50;19.40;12.80;7.00
20157;PMS5003;10239;56.820;24.416;2024-03-02T12:22:18;28.40;25.00;12.40
20157;PMS5003;10239;56.820;24.416;2024-03-02T12:24:45;27.80;23.40;11.40
20157;PMS5003;10239;56.820;24.416;2024-03-02T12:27:14;17.40;13.20;6.00
20157;PMS5003;10239;56.820;24.416;2024-03-02T12:29:42;13.00;12.40;7.60
20157;PMS5003;10239;56.820;24.416;2024-03-02T12:32:10;10.00;8.40;5.60
20157;PMS5003;10239;56.820;24.416;2024-03-02T12:34:38;14.80;11.20;5.80
20157;PMS5003;10239;56.820;24.416;2024-03-02T12:37:06;14.00;12.60;6.60
20157;PMS5003;10239;56.820;24.416;2024-03-02T12:39:34;13.00;10.80;3.00
20157;PMS5003;10239;56.820;24.416;2024-03-02T12:42:02;16.80;13.20;6.00
20157;PMS5003;10239;56.820;24.416;2024-03-02T12:44:30;16.40;12.80;7.80
20157;PMS5003;10239;56.820;24.416;2024-03-02T12:46:57;9.20;9.20;5.80
20157;PMS5003;10239;56.820;24.416;2024-03-02T12:49:27;14.60;13.20;6.00
20157;PMS5003;10239;56.820;24.416;2024-03-02T12:51:57;11.40;8.20;3.80
20157;PMS5003;10239;56.820;24.416;2024-03-02T12:54:25;14.40;8.40;5.00
20157;PMS5003;10239;56.820;24.416;2024-03-02T12:56:54;17.80;14.00;6.00
20157;PMS5003;10239;56.820;24.416;2024-03-02T12:59:24;17.60;12.20;6.00
20157;PMS5003;10239;56.820;24.416;2024-03-02T13:01:53;10.60;10.60;5.00
20157;PMS5003;10239;56.820;24.416;2024-03-02T13:04:25;16.80;12.40;7.00
20157;PMS5003;10239;56.820;24.416;2024-03-02T13:06:55;17.80;14.00;6.00
20157;PMS5003;10239;56.820;24.416;2024-03-02T13:09:25;11.80;11.20;7.00
20157;PMS5003;10239;56.820;24.416;2024-03-02T13:11:53;14.20;11.60;7.00
20157;PMS5003;10239;56.820;24.416;2024-03-02T13:14:21;19.40;14.20;6.20
20157;PMS5003;10239;56.820;24.416;2024-03-02T13:16:51;11.00;10.00;6.00
20157;PMS5003;10239;56.820;24.416;2024-03-02T13:19:26;13.80;13.80;6.40
20157;PMS5003;10239;56.820;24.416;2024-03-02T13:21:57;14.60;12.00;6.00
20157;PMS5003;10239;56.820;24.416;2024-03-02T13:24:25;2.60;2.60;2.20
20157;PMS5003;10239;56.820;24.416;2024-03-02T13:26:55;14.60;10.60;5.00
20157;PMS5003;10239;56.820;24.416;2024-03-02T13:29:24;16.20;14.40;7.00
20157;PMS5003;10239;56.820;24.416;2024-03-02T13:31:52;7.80;7.80;5.80
20157;PMS5003;10239;56.820;24.416;2024-03-02T13:34:20;8.20;5.80;1.00
20157;PMS5003;10239;56.820;24.416;2024-03-02T13:36:47;14.40;13.80;7.40
20157;PMS5003;10239;56.820;24.416;2024-03-02T13:39:15;10.80;9.60;3.40
20157;PMS5003;10239;56.820;24.416;2024-03-02T13:41:43;13.80;7.40;6.40
20157;PMS5003;10239;56.820;24.416;2024-03-02T13:44:19;18.20;12.00;5.80
20157;PMS5003;10239;56.820;24.416;2024-03-02T13:46:46;20.40;14.40;6.00
20157;PMS5003;10239;56.820;24.416;2024-03-02T13:49:13;11.80;11.80;6.00
20157;PMS5003;10239;56.820;24.416;2024-03-02T13:51:41;14.60;12.60;7.00
20157;PMS5003;10239;56.820;24.416;2024-03-02T13:54:08;22.40;15.80;6.80
20157;PMS5003;10239;56.820;24.416;2024-03-02T13:56:36;16.60;12.40;6.80
20157;PMS5003;10239;56.820;24.416;2024-03-02T13:59:05;11.20;11.20;6.20
20157;PMS5003;10239;56.820;24.416;2024-03-02T14:01:33;19.40;15.20;7.40
20157;PMS5003;10239;56.820;24.416;2024-03-02T14:04:01;14.40;12.40;7.00
20157;PMS5003;10239;56.820;24.416;2024-03-02T14:06:29;14.00;12.60;7.00
20157;PMS5003;10239;56.820;24.416;2024-03-02T14:08:56;15.20;11.00;5.80
20157;PMS5003;10239;56.820;24.416;2024-03-02T14:11:24;11.00;9.80;5.80
20157;PMS5003;10239;56.820;24.416;2024-03-02T14:13:51;18.60;13.60;7.00